sensor_id;sensor_type;location;lat;lon;timestamp;pressure;altitude;pressure_sealevel;temperature;humidity
43281;BME280;62175;49.416;8.690;2023-07-31T00:01:07;100464.29;;;22.20;51.07
43281;BME280;62175;49.416;8.690;2023-07-31T00:03:37;100464.27;;;22.04;53.13
43281;BME280;62175;49.416;8.690;2023-07-31T00:06:05;100463.98;;;21.58;48.12
43281;BME280;62175;49.416;8.690;2023-07-31T00:08:33;100465.17;;;21.28;49.46
43281;BME280;62175;49.416;8.690;2023-07-31T00:11:01;100467.01;;;21.36;48.75
43281;BME280;62175;49.416;8.690;2023-07-31T00:13:28;100463.29;;;21.66;52.78
43281;BME280;62175;49.416;8.690;2023-07-31T00:15:55;100462.39;;;21.83;50.40
43281;BME280;62175;49.416;8.690;2023-07-31T00:18:23;100466.97;;;21.70;49.67
43281;BME280;62175;49.416;8.690;2023-07-31T00:20:51;100468.43;;;21.68;52.85
43281;BME280;62175;49.416;8.690;2023-07-31T00:23:19;100465.95;;;21.51;49.27
43281;BME280;62175;49.416;8.690;2023-07-31T00:25:46;100461.92;;;21.56;51.49
43281;BME280;62175;49.416;8.690;2023-07-31T00:28:14;100460.47;;;21.47;49.80
43281;BME280;62175;49.416;8.690;2023-07-31T00:30:41;100459.71;;;21.60;51.38
43281;BME280;62175;49.416;8.690;2023-07-31T00:33:09;100457.42;;;22.04;52.66
43281;BME280;62175;49.416;8.690;2023-07-31T00:35:36;100457.51;;;21.84;49.98
43281;BME280;62175;49.416;8.690;2023-07-31T00:38:04;100456.89;;;22.03;49.65
43281;BME280;62175;49.416;8.690;2023-07-31T00:40:35;100458.43;;;21.72;52.35
43281;BME280;62175;49.416;8.690;2023-07-31T00:43:02;100456.84;;;21.64;52.60
43281;BME280;62175;49.416;8.690;2023-07-31T00:45:31;100456.14;;;21.62;49.70
43281;BME280;62175;49.416;8.690;2023-07-31T00:47:58;100454.95;;;21.48;50.39
43281;BME280;62175;49.416;8.690;2023-07-31T00:50:28;100455.09;;;21.72;56.23
43281;BME280;62175;49.416;8.690;2023-07-31T00:52:56;100450.90;;;21.92;51.20
43281;BME280;62175;49.416;8.690;2023-07-31T00:55:23;100449.53;;;22.03;53.73
43281;BME280;62175;49.416;8.690;2023-07-31T00:57:52;100447.73;;;21.63;50.56
43281;BME280;62175;49.416;8.690;2023-07-31T01:00:20;100438.45;;;21.91;51.13
43281;BME280;62175;49.416;8.690;2023-07-31T01:02:48;100433.26;;;21.97;50.00
43281;BME280;62175;49.416;8.690;2023-07-31T01:05:16;100433.28;;;21.75;52.06
43281;BME280;62175;49.416;8.690;2023-07-31T01:07:52;100428.33;;;22.04;50.65
43281;BME280;62175;49.416;8.690;2023-07-31T01:10:23;100429.06;;;21.27;52.71
43281;BME280;62175;49.416;8.690;2023-07-31T01:12:54;100427.25;;;21.46;48.63
43281;BME280;62175;49.416;8.690;2023-07-31T01:15:23;100428.02;;;21.92;49.36
43281;BME280;62175;49.416;8.690;2023-07-31T01:17:51;100431.63;;;21.65;50.09
43281;BME280;62175;49.416;8.690;2023-07-31T01:20:22;100431.66;;;21.75;57.39
43281;BME280;62175;49.416;8.690;2023-07-31T01:23:34;100430.49;;;21.45;49.58
43281;BME280;62175;49.416;8.690;2023-07-31T01:26:13;100431.09;;;21.45;55.65
43281;BME280;62175;49.416;8.690;2023-07-31T01:28:53;100426.93;;;21.65;49.96
43281;BME280;62175;49.416;8.690;2023-07-31T01:31:29;100425.28;;;21.45;52.29
43281;BME280;62175;49.416;8.690;2023-07-31T01:34:01;100420.14;;;21.72;52.56
43281;BME280;62175;49.416;8.690;2023-07-31T01:36:29;100416.02;;;21.62;49.07
43281;BME280;62175;49.416;8.690;2023-07-31T01:38:58;100406.74;;;21.65;51.89
43281;BME280;62175;49.416;8.690;2023-07-31T01:41:26;100409.80;;;21.80;49.10
43281;BME280;62175;49.416;8.690;2023-07-31T01:43:54;100406.05;;;21.69;50.28
43281;BME280;62175;49.416;8.690;2023-07-31T01:46:22;100403.18;;;21.54;55.27
43281;BME280;62175;49.416;8.690;2023-07-31T01:48:50;100403.86;;;21.08;49.02
43281;BME280;62175;49.416;8.690;2023-07-31T01:51:18;100401.00;;;21.58;53.45
43281;BME280;62175;49.416;8.690;2023-07-31T01:53:46;100401.45;;;21.25;51.16
43281;BME280;62175;49.416;8.690;2023-07-31T01:56:14;100401.11;;;21.04;48.74
43281;BME280;62175;49.416;8.690;2023-07-31T01:58:42;100404.33;;;21.40;49.46
43281;BME280;62175;49.416;8.690;2023-07-31T02:01:11;100399.83;;;21.58;52.08
43281;BME280;62175;49.416;8.690;2023-07-31T02:03:39;100404.50;;;21.56;54.01
43281;BME280;62175;49.416;8.690;2023-07-31T02:06:06;100398.91;;;21.82;50.96
43281;BME280;62175;49.416;8.690;2023-07-31T02:08:33;100398.45;;;21.56;49.14
43281;BME280;62175;49.416;8.690;2023-07-31T02:11:01;100398.32;;;21.83;52.90
43281;BME280;62175;49.416;8.690;2023-07-31T02:13:28;100398.61;;;21.54;50.15
43281;BME280;62175;49.416;8.690;2023-07-31T02:15:56;100391.54;;;21.40;52.07
43281;BME280;62175;49.416;8.690;2023-07-31T02:18:24;100389.05;;;21.21;48.24
43281;BME280;62175;49.416;8.690;2023-07-31T02:20:52;100382.82;;;21.44;48.22
43281;BME280;62175;49.416;8.690;2023-07-31T02:23:19;100377.29;;;21.51;52.13
43281;BME280;62175;49.416;8.690;2023-07-31T02:25:48;100378.46;;;20.81;50.57
43281;BME280;62175;49.416;8.690;2023-07-31T02:28:15;100376.37;;;20.87;50.41
43281;BME280;62175;49.416;8.690;2023-07-31T02:30:45;100369.29;;;21.20;49.22
43281;BME280;62175;49.416;8.690;2023-07-31T02:33:12;100366.66;;;21.76;49.62
43281;BME280;62175;49.416;8.690;2023-07-31T02:35:40;100368.09;;;20.99;48.62
43281;BME280;62175;49.416;8.690;2023-07-31T02:38:08;100364.07;;;21.31;49.75
43281;BME280;62175;49.416;8.690;2023-07-31T02:40:35;100371.48;;;20.99;48.46
43281;BME280;62175;49.416;8.690;2023-07-31T02:43:02;100366.90;;;21.51;51.22
43281;BME280;62175;49.416;8.690;2023-07-31T02:45:30;100365.26;;;21.79;51.20
43281;BME280;62175;49.416;8.690;2023-07-31T02:48:00;100362.54;;;20.95;49.03
43281;BME280;62175;49.416;8.690;2023-07-31T02:50:28;100362.78;;;21.17;49.21
43281;BME280;62175;49.416;8.690;2023-07-31T02:52:56;100365.21;;;21.43;51.42
43281;BME280;62175;49.416;8.690;2023-07-31T02:55:25;100368.25;;;21.56;53.13
43281;BME280;62175;49.416;8.690;2023-07-31T02:57:52;100367.71;;;21.48;49.11
43281;BME280;62175;49.416;8.690;2023-07-31T03:00:21;100369.56;;;21.51;53.06
43281;BME280;62175;49.416;8.690;2023-07-31T03:02:48;100371.58;;;21.03;49.80
43281;BME280;62175;49.416;8.690;2023-07-31T03:05:16;100365.05;;;21.44;51.80
43281;BME280;62175;49.416;8.690;2023-07-31T03:07:44;100367.05;;;21.46;53.09
43281;BME280;62175;49.416;8.690;2023-07-31T03:10:11;100367.38;;;21.36;49.48
43281;BME280;62175;49.416;8.690;2023-07-31T03:12:39;100364.23;;;21.10;50.38
43281;BME280;62175;49.416;8.690;2023-07-31T03:15:09;100360.23;;;21.42;50.13
43281;BME280;62175;49.416;8.690;2023-07-31T03:17:36;100364.67;;;21.41;51.84
43281;BME280;62175;49.416;8.690;2023-07-31T03:20:05;100359.60;;;21.46;49.51
43281;BME280;62175;49.416;8.690;2023-07-31T03:22:33;100359.09;;;21.76;51.68
43281;BME280;62175;49.416;8.690;2023-07-31T03:25:02;100361.15;;;21.85;53.97
43281;BME280;62175;49.416;8.690;2023-07-31T03:27:30;100363.69;;;21.61;51.47
43281;BME280;62175;49.416;8.690;2023-07-31T03:29:59;100367.60;;;21.70;53.69
43281;BME280;62175;49.416;8.690;2023-07-31T03:32:28;100367.96;;;21.54;49.74
43281;BME280;62175;49.416;8.690;2023-07-31T03:34:55;100363.25;;;21.74;49.42
43281;BME280;62175;49.416;8.690;2023-07-31T03:37:22;100366.42;;;21.52;49.97
43281;BME280;62175;49.416;8.690;2023-07-31T03:39:50;100363.96;;;21.41;49.25
43281;BME280;62175;49.416;8.690;2023-07-31T03:42:17;100364.57;;;21.48;51.78
43281;BME280;62175;49.416;8.690;2023-07-31T03:44:44;100361.62;;;21.52;52.96
43281;BME280;62175;49.416;8.690;2023-07-31T03:47:10;100361.71;;;21.75;51.15
43281;BME280;62175;49.416;8.690;2023-07-31T03:49:37;100366.55;;;21.56;51.51
43281;BME280;62175;49.416;8.690;2023-07-31T03:52:06;100360.29;;;21.57;53.91
43281;BME280;62175;49.416;8.690;2023-07-31T03:54:34;100355.54;;;21.59;54.99
43281;BME280;62175;49.416;8.690;2023-07-31T03:57:02;100359.13;;;21.59;53.84
43281;BME280;62175;49.416;8.690;2023-07-31T03:59:30;100359.12;;;21.56;51.67
43281;BME280;62175;49.416;8.690;2023-07-31T04:02:00;100364.42;;;21.36;54.63
43281;BME280;62175;49.416;8.690;2023-07-31T04:04:28;100364.15;;;21.40;49.78
43281;BME280;62175;49.416;8.690;2023-07-31T04:06:55;100364.73;;;21.64;51.48
43281;BME280;62175;49.416;8.690;2023-07-31T04:09:23;100360.27;;;21.85;51.02
43281;BME280;62175;49.416;8.690;2023-07-31T04:11:52;100364.53;;;21.39;51.00
43281;BME280;62175;49.416;8.690;2023-07-31T04:14:19;100358.66;;;21.15;49.49
43281;BME280;62175;49.416;8.690;2023-07-31T04:16:47;100358.47;;;21.73;54.30
43281;BME280;62175;49.416;8.690;2023-07-31T04:19:15;100358.26;;;21.67;52.32
43281;BME280;62175;49.416;8.690;2023-07-31T04:21:42;100361.31;;;21.47;50.36
43281;BME280;62175;49.416;8.690;2023-07-31T04:24:09;100360.31;;;21.20;51.00
43281;BME280;62175;49.416;8.690;2023-07-31T04:26:37;100357.41;;;21.49;52.04
43281;BME280;62175;49.416;8.690;2023-07-31T04:29:06;100357.03;;;21.26;50.21
43281;BME280;62175;49.416;8.690;2023-07-31T04:31:33;100363.99;;;21.33;51.62
43281;BME280;62175;49.416;8.690;2023-07-31T04:34:01;100357.23;;;21.72;51.25
43281;BME280;62175;49.416;8.690;2023-07-31T04:36:28;100352.49;;;21.74;51.73
43281;BME280;62175;49.416;8.690;2023-07-31T04:38:57;100355.62;;;21.18;50.04
43281;BME280;62175;49.416;8.690;2023-07-31T04:41:25;100354.22;;;21.50;52.32
43281;BME280;62175;49.416;8.690;2023-07-31T04:43:52;100360.01;;;21.30;51.59
43281;BME280;62175;49.416;8.690;2023-07-31T04:46:20;100356.24;;;21.51;50.53
43281;BME280;62175;49.416;8.690;2023-07-31T04:48:47;100350.36;;;21.15;52.09
43281;BME280;62175;49.416;8.690;2023-07-31T04:51:15;100349.90;;;20.67;49.90
43281;BME280;62175;49.416;8.690;2023-07-31T04:53:44;100345.07;;;21.58;51.08
43281;BME280;62175;49.416;8.690;2023-07-31T04:56:11;100345.91;;;21.54;53.23
43281;BME280;62175;49.416;8.690;2023-07-31T04:58:39;100354.36;;;20.85;50.21
43281;BME280;62175;49.416;8.690;2023-07-31T05:01:07;100350.32;;;21.38;54.74
43281;BME280;62175;49.416;8.690;2023-07-31T05:03:35;100351.28;;;21.05;50.94
43281;BME280;62175;49.416;8.690;2023-07-31T05:06:03;100351.40;;;21.12;49.88
43281;BME280;62175;49.416;8.690;2023-07-31T05:08:31;100347.06;;;21.51;52.12
43281;BME280;62175;49.416;8.690;2023-07-31T05:10:58;100347.16;;;21.16;54.33
43281;BME280;62175;49.416;8.690;2023-07-31T05:13:25;100346.05;;;21.48;52.17
43281;BME280;62175;49.416;8.690;2023-07-31T05:15:53;100343.90;;;21.16;50.32
43281;BME280;62175;49.416;8.690;2023-07-31T05:18:21;100347.77;;;21.22;49.75
43281;BME280;62175;49.416;8.690;2023-07-31T05:20:48;100345.73;;;21.09;49.82
43281;BME280;62175;49.416;8.690;2023-07-31T05:23:15;100343.74;;;21.02;49.82
43281;BME280;62175;49.416;8.690;2023-07-31T05:25:42;100342.52;;;21.13;52.17
43281;BME280;62175;49.416;8.690;2023-07-31T05:28:12;100339.08;;;21.07;51.70
43281;BME280;62175;49.416;8.690;2023-07-31T05:30:40;100339.77;;;21.19;53.57
43281;BME280;62175;49.416;8.690;2023-07-31T05:33:07;100344.52;;;20.68;53.43
43281;BME280;62175;49.416;8.690;2023-07-31T05:35:35;100347.30;;;20.92;52.03
43281;BME280;62175;49.416;8.690;2023-07-31T05:38:03;100345.77;;;21.04;50.62
43281;BME280;62175;49.416;8.690;2023-07-31T05:40:32;100340.70;;;21.44;50.50
43281;BME280;62175;49.416;8.690;2023-07-31T05:43:02;100343.13;;;21.18;51.11
43281;BME280;62175;49.416;8.690;2023-07-31T05:45:30;100348.15;;;20.79;50.97
43281;BME280;62175;49.416;8.690;2023-07-31T05:48:00;100347.08;;;20.82;50.82
43281;BME280;62175;49.416;8.690;2023-07-31T05:50:28;100346.53;;;21.14;53.73
43281;BME280;62175;49.416;8.690;2023-07-31T05:52:57;100345.46;;;21.34;51.32
43281;BME280;62175;49.416;8.690;2023-07-31T05:55:28;100346.25;;;20.78;50.38
43281;BME280;62175;49.416;8.690;2023-07-31T05:58:10;100344.66;;;21.05;50.94
43281;BME280;62175;49.416;8.690;2023-07-31T06:00:39;100347.62;;;20.54;51.42
43281;BME280;62175;49.416;8.690;2023-07-31T06:03:20;100347.06;;;20.69;53.92
43281;BME280;62175;49.416;8.690;2023-07-31T06:05:48;100344.30;;;20.89;52.79
43281;BME280;62175;49.416;8.690;2023-07-31T06:08:17;100341.90;;;21.26;50.83
43281;BME280;62175;49.416;8.690;2023-07-31T06:10:44;100344.83;;;21.27;49.84
43281;BME280;62175;49.416;8.690;2023-07-31T06:13:12;100344.46;;;21.06;50.81
43281;BME280;62175;49.416;8.690;2023-07-31T06:15:43;100342.72;;;21.12;51.89
43281;BME280;62175;49.416;8.690;2023-07-31T06:18:10;100343.71;;;21.48;51.99
43281;BME280;62175;49.416;8.690;2023-07-31T06:20:37;100342.24;;;20.81;50.67
43281;BME280;62175;49.416;8.690;2023-07-31T06:23:15;100339.43;;;21.11;50.98
43281;BME280;62175;49.416;8.690;2023-07-31T06:25:43;100333.14;;;21.50;52.26
43281;BME280;62175;49.416;8.690;2023-07-31T06:28:19;100333.71;;;20.97;52.38
43281;BME280;62175;49.416;8.690;2023-07-31T06:30:48;100330.43;;;21.55;52.38
43281;BME280;62175;49.416;8.690;2023-07-31T06:33:16;100329.15;;;21.24;51.42
43281;BME280;62175;49.416;8.690;2023-07-31T06:35:43;100328.84;;;21.28;54.67
43281;BME280;62175;49.416;8.690;2023-07-31T06:38:11;100328.81;;;21.25;52.16
43281;BME280;62175;49.416;8.690;2023-07-31T06:40:39;100327.59;;;21.28;53.21
43281;BME280;62175;49.416;8.690;2023-07-31T06:43:07;100327.70;;;21.33;50.67
43281;BME280;62175;49.416;8.690;2023-07-31T06:45:35;100322.40;;;21.27;50.80
43281;BME280;62175;49.416;8.690;2023-07-31T06:48:03;100319.27;;;20.89;50.10
43281;BME280;62175;49.416;8.690;2023-07-31T06:50:32;100320.73;;;21.53;55.27
43281;BME280;62175;49.416;8.690;2023-07-31T06:52:59;100315.26;;;21.88;52.35
43281;BME280;62175;49.416;8.690;2023-07-31T06:55:27;100315.78;;;21.45;51.60
43281;BME280;62175;49.416;8.690;2023-07-31T06:57:57;100318.21;;;21.50;51.35
43281;BME280;62175;49.416;8.690;2023-07-31T07:00:24;100324.23;;;21.50;52.30
43281;BME280;62175;49.416;8.690;2023-07-31T07:02:52;100318.29;;;21.78;53.39
43281;BME280;62175;49.416;8.690;2023-07-31T07:05:22;100321.68;;;21.76;52.56
43281;BME280;62175;49.416;8.690;2023-07-31T07:07:50;100327.83;;;21.03;50.63
43281;BME280;62175;49.416;8.690;2023-07-31T07:10:17;100327.42;;;21.38;52.24
43281;BME280;62175;49.416;8.690;2023-07-31T07:12:45;100324.58;;;21.56;52.57
43281;BME280;62175;49.416;8.690;2023-07-31T07:15:13;100324.01;;;21.09;53.09
43281;BME280;62175;49.416;8.690;2023-07-31T07:17:40;100312.76;;;21.09;51.76
43281;BME280;62175;49.416;8.690;2023-07-31T07:20:09;100313.72;;;21.40;53.63
43281;BME280;62175;49.416;8.690;2023-07-31T07:22:37;100314.73;;;21.12;50.67
43281;BME280;62175;49.416;8.690;2023-07-31T07:25:06;100322.82;;;21.79;54.11
43281;BME280;62175;49.416;8.690;2023-07-31T07:27:35;100319.55;;;21.65;51.42
43281;BME280;62175;49.416;8.690;2023-07-31T07:30:06;100318.35;;;21.24;49.97
43281;BME280;62175;49.416;8.690;2023-07-31T07:32:35;100317.80;;;21.58;53.09
43281;BME280;62175;49.416;8.690;2023-07-31T07:35:02;100321.97;;;21.45;52.86
43281;BME280;62175;49.416;8.690;2023-07-31T07:37:30;100315.59;;;21.52;51.22
43281;BME280;62175;49.416;8.690;2023-07-31T07:39:58;100313.88;;;20.95;51.29
43281;BME280;62175;49.416;8.690;2023-07-31T07:42:25;100311.34;;;21.00;50.58
43281;BME280;62175;49.416;8.690;2023-07-31T07:44:55;100305.99;;;21.16;50.76
43281;BME280;62175;49.416;8.690;2023-07-31T07:47:26;100310.42;;;20.93;50.81
43281;BME280;62175;49.416;8.690;2023-07-31T07:50:11;100310.93;;;21.18;53.03
43281;BME280;62175;49.416;8.690;2023-07-31T07:52:38;100309.33;;;21.37;51.23
43281;BME280;62175;49.416;8.690;2023-07-31T07:55:16;100308.48;;;21.36;52.26
43281;BME280;62175;49.416;8.690;2023-07-31T07:57:46;100314.06;;;21.65;53.15
43281;BME280;62175;49.416;8.690;2023-07-31T08:00:14;100307.26;;;21.21;52.04
43281;BME280;62175;49.416;8.690;2023-07-31T08:02:43;100308.49;;;21.19;51.01
43281;BME280;62175;49.416;8.690;2023-07-31T08:05:12;100310.30;;;21.50;51.72
43281;BME280;62175;49.416;8.690;2023-07-31T08:07:40;100303.22;;;21.05;50.49
43281;BME280;62175;49.416;8.690;2023-07-31T08:10:08;100302.07;;;21.22;52.44
43281;BME280;62175;49.416;8.690;2023-07-31T08:12:35;100303.09;;;21.09;50.99
43281;BME280;62175;49.416;8.690;2023-07-31T08:15:04;100302.98;;;21.21;51.30
43281;BME280;62175;49.416;8.690;2023-07-31T08:17:34;100297.65;;;21.27;52.59
43281;BME280;62175;49.416;8.690;2023-07-31T08:40:20;100273.73;;;21.25;52.66
43281;BME280;62175;49.416;8.690;2023-07-31T10:29:31;100176.34;;;21.94;51.81
43281;BME280;62175;49.416;8.690;2023-07-31T22:26:31;99507.13;;;21.88;69.45
43281;BME280;62175;49.416;8.690;2023-07-31T22:28:31;99510.56;;;21.59;70.24
43281;BME280;62175;49.416;8.690;2023-07-31T22:30:58;99511.93;;;21.58;71.08
43281;BME280;62175;49.416;8.690;2023-07-31T22:33:25;99505.12;;;21.70;66.46
43281;BME280;62175;49.416;8.690;2023-07-31T22:35:52;99513.44;;;21.43;67.88
43281;BME280;62175;49.416;8.690;2023-07-31T22:38:19;99511.97;;;21.94;68.01
43281;BME280;62175;49.416;8.690;2023-07-31T22:40:46;99510.74;;;21.70;65.54
43281;BME280;62175;49.416;8.690;2023-07-31T22:43:13;99511.09;;;21.96;65.95
43281;BME280;62175;49.416;8.690;2023-07-31T22:45:44;99507.00;;;21.75;68.11
43281;BME280;62175;49.416;8.690;2023-07-31T22:48:11;99506.72;;;21.77;66.25
43281;BME280;62175;49.416;8.690;2023-07-31T22:50:38;99504.68;;;21.58;66.99
43281;BME280;62175;49.416;8.690;2023-07-31T22:53:05;99499.61;;;21.94;67.20
43281;BME280;62175;49.416;8.690;2023-07-31T22:55:33;99498.52;;;21.60;65.89
43281;BME280;62175;49.416;8.690;2023-07-31T22:58:01;99491.50;;;21.69;66.65
43281;BME280;62175;49.416;8.690;2023-07-31T23:00:28;99486.34;;;22.24;66.35
43281;BME280;62175;49.416;8.690;2023-07-31T23:02:55;99480.45;;;21.74;65.62
43281;BME280;62175;49.416;8.690;2023-07-31T23:05:23;99481.52;;;22.00;65.64
43281;BME280;62175;49.416;8.690;2023-07-31T23:07:50;99473.44;;;21.82;69.34
43281;BME280;62175;49.416;8.690;2023-07-31T23:10:17;99470.55;;;21.82;67.15
43281;BME280;62175;49.416;8.690;2023-07-31T23:12:44;99457.27;;;21.76;67.09
43281;BME280;62175;49.416;8.690;2023-07-31T23:15:11;99460.70;;;21.76;67.80
43281;BME280;62175;49.416;8.690;2023-07-31T23:17:38;99459.28;;;21.76;67.40
43281;BME280;62175;49.416;8.690;2023-07-31T23:20:05;99460.09;;;21.54;65.84
43281;BME280;62175;49.416;8.690;2023-07-31T23:22:32;99451.39;;;21.67;67.83
43281;BME280;62175;49.416;8.690;2023-07-31T23:24:59;99448.80;;;21.73;66.03
43281;BME280;62175;49.416;8.690;2023-07-31T23:27:26;99444.85;;;21.70;66.75
43281;BME280;62175;49.416;8.690;2023-07-31T23:29:53;99437.45;;;21.76;68.83
43281;BME280;62175;49.416;8.690;2023-07-31T23:32:20;99436.50;;;21.75;66.78
43281;BME280;62175;49.416;8.690;2023-07-31T23:34:47;99437.41;;;22.07;66.19
43281;BME280;62175;49.416;8.690;2023-07-31T23:37:14;99430.25;;;21.90;66.23
43281;BME280;62175;49.416;8.690;2023-07-31T23:39:41;99430.25;;;21.42;66.19
43281;BME280;62175;49.416;8.690;2023-07-31T23:42:08;99434.30;;;21.43;66.77
43281;BME280;62175;49.416;8.690;2023-07-31T23:44:34;99431.40;;;21.29;66.97
43281;BME280;62175;49.416;8.690;2023-07-31T23:47:01;99425.48;;;21.38;66.40
43281;BME280;62175;49.416;8.690;2023-07-31T23:49:28;99423.49;;;21.71;67.62
43281;BME280;62175;49.416;8.690;2023-07-31T23:51:56;99419.48;;;21.42;66.58
43281;BME280;62175;49.416;8.690;2023-07-31T23:54:23;99420.37;;;21.81;66.74
43281;BME280;62175;49.416;8.690;2023-07-31T23:56:49;99417.57;;;21.48;68.07
43281;BME280;62175;49.416;8.690;2023-07-31T23:59:16;99418.04;;;21.24;68.73
